Time,TemperatureF,DewpointF,PressureIn,WindDirection,WindDirectionDegrees,WindSpeedMPH,WindSpeedGustMPH,Humidity,HourlyPrecipIn,Conditions,Clouds,dailyrainin,SoftwareType,DateUTC
2017-03-25 00:00:00,40.5,36.0,30.00,East,94,3.0,10.0,84,0.04,,---,0.00,VWS V13.01,2017-03-25 05:00:00,
2017-03-25 00:30:00,40.1,35.7,30.00,East,98,4.0,10.0,84,0.04,,---,0.00,VWS V13.01,2017-03-25 05:30:00,
2017-03-25 01:00:00,39.8,35.1,29.99,East,90,2.0,11.0,83,0.04,,---,0.00,VWS V13.01,2017-03-25 06:00:00,
2017-03-25 02:00:00,39.6,34.6,29.99,East,96,2.0,11.0,82,0.00,,---,0.00,VWS V13.01,2017-03-25 07:00:00,
2017-03-25 02:30:00,39.3,34.3,29.99,ESE,109,1.0,7.0,82,0.03,,---,0.03,VWS V13.01,2017-03-25 07:30:00,
2017-03-25 03:00:00,39.4,33.8,29.98,ENE,64,1.0,8.0,80,0.04,,---,0.04,VWS V13.01,2017-03-25 08:00:00,
2017-03-25 03:30:00,39.6,33.3,29.98,East,84,3.0,9.0,78,0.04,,---,0.04,VWS V13.01,2017-03-25 08:30:00,
2017-03-25 04:00:00,39.5,33.2,29.98,NE,38,0.0,9.0,78,0.01,,---,0.04,VWS V13.01,2017-03-25 09:00:00,
2017-03-25 04:30:00,39.4,33.1,29.99,East,96,0.0,11.0,78,0.01,,---,0.05,VWS V13.01,2017-03-25 09:30:00,
2017-03-25 05:00:00,39.4,33.1,29.99,East,96,1.0,9.0,78,0.02,,---,0.06,VWS V13.01,2017-03-25 10:00:00,
2017-03-25 05:30:00,39.5,32.9,29.97,ENE,67,3.0,11.0,77,0.02,,---,0.06,VWS V13.01,2017-03-25 10:30:00,
2017-03-25 06:00:00,39.7,33.4,29.99,East,96,2.0,12.0,78,0.01,,---,0.06,VWS V13.01,2017-03-25 11:00:00,
2017-03-25 06:30:00,39.6,33.6,29.98,ESE,106,5.0,13.0,79,0.00,,---,0.06,VWS V13.01,2017-03-25 11:30:00,
2017-03-25 07:00:00,39.5,33.5,29.98,ESE,109,1.0,11.0,79,0.01,,---,0.07,VWS V13.01,2017-03-25 12:00:00,
2017-03-25 07:30:00,39.8,33.2,29.98,ENE,75,1.0,15.0,77,0.01,,---,0.07,VWS V13.01,2017-03-25 12:30:00,
2017-03-25 08:00:00,40.1,33.2,30.00,East,84,2.0,15.0,76,0.01,,---,0.07,VWS V13.01,2017-03-25 13:00:00,
2017-03-25 08:30:00,40.5,33.2,29.99,East,85,2.0,12.0,75,0.00,,---,0.07,VWS V13.01,2017-03-25 13:30:00,
2017-03-25 09:11:00,40.9,33.3,29.98,East,80,3.0,15.0,74,0.00,,---,0.07,VWS V13.01,2017-03-25 14:11:00,
2017-03-25 09:30:00,41.2,33.2,29.98,East,91,2.0,12.0,73,0.00,,---,0.07,VWS V13.01,2017-03-25 14:30:00,
2017-03-25 10:00:00,41.5,32.5,29.98,ENE,65,4.0,13.0,70,0.03,,---,0.10,VWS V13.01,2017-03-25 15:00:00,
2017-03-25 10:30:00,41.9,32.1,29.96,East,82,1.0,15.0,68,0.06,,---,0.13,VWS V13.01,2017-03-25 15:30:00,
2017-03-25 11:00:00,42.2,32.4,29.97,East,90,0.0,14.0,68,0.07,,---,0.14,VWS V13.01,2017-03-25 16:00:00,
2017-03-25 11:30:00,42.4,32.2,29.97,East,88,2.0,14.0,67,0.12,,---,0.22,VWS V13.01,2017-03-25 16:30:00,